createdAt,value
2018-07-24T00:01:13.436Z,7.70
2018-07-24T00:03:15.535Z,7.20
2018-07-24T00:05:17.615Z,7.33
2018-07-24T00:07:19.656Z,7.50
2018-07-24T00:09:21.774Z,7.67
2018-07-24T00:11:23.876Z,7.10
2018-07-24T00:13:26.001Z,7.63
2018-07-24T00:15:28.163Z,7.60
2018-07-24T00:17:30.328Z,8.00
2018-07-24T00:19:32.358Z,8.37
2018-07-24T00:21:34.420Z,8.03
2018-07-24T00:23:36.545Z,8.20
2018-07-24T00:25:38.621Z,8.80
2018-07-24T00:27:40.693Z,8.97
2018-07-24T00:29:42.752Z,8.03
2018-07-24T00:31:44.816Z,9.00
2018-07-24T00:33:46.924Z,7.70
2018-07-24T00:35:49.012Z,6.43
2018-07-24T00:37:51.068Z,7.10
2018-07-24T00:39:53.132Z,7.50
2018-07-24T00:41:55.176Z,7.50
2018-07-24T00:43:57.249Z,7.93
2018-07-24T00:45:59.328Z,7.60
2018-07-24T00:48:01.396Z,7.50
2018-07-24T00:50:03.577Z,7.10
2018-07-24T00:52:05.982Z,7.00
2018-07-24T00:54:08.069Z,7.57
2018-07-24T00:56:10.136Z,7.67
2018-07-24T00:58:12.179Z,8.00
2018-07-24T01:00:14.224Z,7.93
2018-07-24T01:02:16.276Z,7.63
2018-07-24T01:04:18.316Z,7.27
2018-07-24T01:06:20.435Z,8.23
2018-07-24T01:08:22.540Z,8.10
2018-07-24T01:10:24.606Z,8.50
2018-07-24T01:12:26.640Z,8.63
2018-07-24T01:14:28.745Z,8.80
2018-07-24T01:16:30.857Z,8.93
2018-07-24T01:18:32.921Z,8.00
2018-07-24T01:20:35.051Z,7.70
2018-07-24T01:22:37.103Z,7.87
2018-07-24T01:24:39.858Z,7.27
2018-07-24T01:26:41.879Z,8.00
2018-07-24T01:28:43.949Z,7.60
2018-07-24T01:30:46.148Z,8.50
2018-07-24T01:32:48.210Z,8.87
2018-07-24T01:34:50.283Z,8.10
2018-07-24T01:36:52.360Z,8.00
2018-07-24T01:38:54.413Z,8.43
2018-07-24T01:40:56.531Z,7.67
2018-07-24T01:42:58.642Z,8.37
2018-07-24T01:45:00.693Z,7.93
2018-07-24T01:47:03.074Z,8.30
2018-07-24T01:49:05.109Z,8.13
2018-07-24T01:51:07.164Z,8.07
2018-07-24T01:53:09.225Z,7.97
2018-07-24T01:55:11.297Z,8.80
2018-07-24T01:57:13.356Z,8.40
2018-07-24T01:59:15.385Z,7.23
2018-07-24T02:01:17.457Z,7.73
2018-07-24T02:03:19.524Z,8.37
2018-07-24T02:05:21.577Z,7.70
2018-07-24T02:07:23.642Z,6.67
2018-07-24T02:09:25.735Z,8.93
2018-07-24T02:11:27.827Z,9.53
2018-07-24T02:13:29.874Z,8.80
2018-07-24T02:15:31.914Z,8.60
2018-07-24T02:17:34.091Z,8.43
2018-07-24T02:19:36.160Z,8.23
2018-07-24T02:21:38.263Z,6.77
2018-07-24T02:23:40.311Z,7.47
2018-07-24T02:25:42.374Z,7.70
2018-07-24T02:27:44.432Z,7.80
2018-07-24T02:29:46.468Z,7.13
2018-07-24T02:31:48.549Z,8.27
2018-07-24T02:33:50.640Z,7.67
2018-07-24T02:35:52.732Z,6.77
2018-07-24T02:37:54.768Z,7.80
2018-07-24T02:39:56.887Z,7.17
2018-07-24T02:41:58.971Z,7.50
2018-07-24T02:44:01.056Z,7.57
2018-07-24T02:46:03.129Z,7.60
2018-07-24T02:48:05.212Z,7.77
2018-07-24T02:50:07.302Z,8.60
2018-07-24T02:52:09.383Z,7.80
2018-07-24T02:54:11.441Z,8.00
2018-07-24T02:56:13.555Z,7.37
2018-07-24T02:58:15.663Z,8.57
2018-07-24T03:00:17.734Z,6.93
2018-07-24T03:02:20.372Z,6.90
2018-07-24T03:04:22.444Z,7.40
2018-07-24T03:06:24.532Z,7.00
2018-07-24T03:08:26.594Z,7.80
2018-07-24T03:10:28.660Z,7.63
2018-07-24T03:12:30.814Z,8.77
2018-07-24T03:14:32.888Z,7.83
2018-07-24T03:16:34.951Z,7.03
2018-07-24T03:18:37.066Z,7.73
2018-07-24T03:20:39.156Z,7.83
2018-07-24T03:22:41.201Z,7.23
2018-07-24T03:24:43.245Z,7.30
2018-07-24T03:26:45.324Z,8.20
2018-07-24T03:28:47.371Z,7.77
2018-07-24T03:30:49.456Z,7.63
2018-07-24T03:32:51.548Z,7.63
2018-07-24T03:34:53.604Z,7.80
2018-07-24T03:36:55.737Z,7.97
2018-07-24T03:38:58.049Z,7.10
2018-07-24T03:41:00.100Z,6.87
2018-07-24T03:43:02.189Z,7.63
2018-07-24T03:45:04.500Z,8.10
2018-07-24T03:47:06.541Z,7.77
2018-07-24T03:49:08.667Z,7.60
2018-07-24T03:51:10.731Z,6.87
2018-07-24T03:53:12.796Z,7.63
2018-07-24T03:55:14.848Z,7.97
2018-07-24T03:57:16.911Z,7.77
2018-07-24T03:59:18.944Z,7.70
2018-07-24T04:01:21.017Z,7.17
2018-07-24T04:03:23.082Z,6.90
2018-07-24T04:05:25.162Z,8.03
2018-07-24T04:07:27.262Z,7.43
2018-07-24T04:09:29.345Z,7.53
2018-07-24T04:11:31.428Z,8.10
2018-07-24T04:13:33.492Z,7.37
2018-07-24T04:15:35.532Z,7.50
2018-07-24T04:17:37.719Z,7.90
2018-07-24T04:19:39.785Z,8.03
2018-07-24T04:21:41.861Z,7.37
2018-07-24T04:23:43.957Z,8.20
2018-07-24T04:25:46.019Z,8.83
2018-07-24T04:27:48.152Z,8.33
2018-07-24T04:29:50.188Z,8.53
2018-07-24T04:31:52.284Z,8.53
2018-07-24T04:33:54.328Z,8.27
2018-07-24T04:35:56.373Z,7.60
2018-07-24T04:37:58.473Z,8.20
2018-07-24T04:40:00.663Z,9.27
2018-07-24T04:42:02.628Z,7.67
2018-07-24T04:44:05.138Z,8.77
2018-07-24T04:46:07.201Z,9.37
2018-07-24T04:48:09.282Z,9.20
2018-07-24T04:50:11.324Z,9.93
2018-07-24T04:52:13.392Z,10.70
2018-07-24T04:54:15.572Z,9.90
2018-07-24T04:56:17.697Z,10.90
2018-07-24T04:58:19.744Z,10.33
2018-07-24T05:00:21.791Z,11.60
2018-07-24T05:02:23.853Z,10.50
2018-07-24T05:04:25.896Z,11.10
2018-07-24T05:06:27.948Z,10.83
2018-07-24T05:08:29.959Z,10.70
2018-07-24T05:10:32.063Z,11.33
2018-07-24T05:12:34.064Z,10.90
2018-07-24T05:14:36.149Z,11.13
2018-07-24T05:16:38.303Z,12.77
2018-07-24T05:18:40.371Z,13.30
2018-07-24T05:20:42.463Z,12.87
2018-07-24T05:22:44.558Z,9.17
2018-07-24T05:24:46.620Z,11.80
2018-07-24T05:26:48.694Z,12.67
2018-07-24T05:28:50.760Z,11.33
2018-07-24T05:30:52.776Z,11.83
2018-07-24T05:32:54.840Z,11.77
2018-07-24T05:34:56.882Z,12.63
2018-07-24T05:36:58.950Z,11.40
2018-07-24T05:39:02.128Z,12.93
2018-07-24T05:41:04.176Z,11.17
2018-07-24T05:43:06.261Z,11.73
2018-07-24T05:45:08.300Z,11.30
2018-07-24T05:47:10.341Z,12.30
2018-07-24T05:49:12.405Z,10.30
2018-07-24T05:51:14.423Z,11.40
2018-07-24T05:53:16.519Z,10.80
2018-07-24T05:55:18.580Z,10.30
2018-07-24T05:57:20.640Z,10.67
2018-07-24T05:59:22.672Z,10.63
2018-07-24T06:01:24.733Z,11.33
2018-07-24T06:03:26.793Z,13.50
2018-07-24T06:05:28.836Z,10.60
2018-07-24T06:07:30.877Z,11.00
2018-07-24T06:09:32.972Z,10.87
2018-07-24T06:11:35.144Z,11.97
2018-07-24T06:13:37.237Z,9.53
2018-07-24T06:15:39.300Z,9.23
2018-07-24T06:17:41.377Z,8.73
2018-07-24T06:19:43.510Z,8.10
2018-07-24T06:21:45.650Z,7.87
2018-07-24T06:23:47.755Z,7.60
2018-07-24T06:25:49.858Z,7.80
2018-07-24T06:27:51.982Z,7.00
2018-07-24T06:29:54.151Z,8.13
2018-07-24T06:31:56.247Z,8.40
2018-07-24T06:33:58.367Z,7.37
2018-07-24T06:36:00.478Z,6.57
2018-07-24T06:38:02.565Z,7.10
2018-07-24T06:40:04.597Z,7.53
2018-07-24T06:42:06.641Z,6.80
2018-07-24T06:44:09.465Z,6.40
2018-07-24T06:46:11.560Z,6.60
2018-07-24T06:48:13.681Z,6.63
2018-07-24T06:50:15.749Z,6.43
2018-07-24T06:52:17.848Z,6.87
2018-07-24T06:54:19.904Z,6.20
2018-07-24T06:56:21.932Z,7.13
2018-07-24T06:58:24.055Z,6.73
2018-07-24T07:00:26.159Z,6.70
2018-07-24T07:02:28.239Z,6.33
2018-07-24T07:04:30.320Z,7.10
2018-07-24T07:06:32.412Z,7.73
2018-07-24T07:08:34.478Z,6.73
2018-07-24T07:10:36.552Z,6.70
2018-07-24T07:12:38.679Z,6.30
2018-07-24T07:14:40.758Z,6.50
2018-07-24T07:16:42.848Z,5.77
2018-07-24T07:18:44.904Z,6.23
2018-07-24T07:20:46.977Z,6.20
2018-07-24T07:22:49.065Z,5.87
2018-07-24T07:24:51.166Z,5.67
2018-07-24T07:26:53.246Z,5.43
2018-07-24T07:28:55.337Z,6.13
2018-07-24T07:30:57.428Z,5.80
2018-07-24T07:32:59.555Z,5.97
2018-07-24T07:35:01.660Z,5.53
2018-07-24T07:37:03.767Z,5.90
2018-07-24T07:39:07.263Z,6.50
2018-07-24T07:41:09.376Z,5.73
2018-07-24T07:43:11.544Z,6.10
2018-07-24T07:45:13.737Z,5.83
2018-07-24T07:47:15.915Z,5.77
2018-07-24T07:49:18.038Z,5.57
2018-07-24T07:51:20.128Z,5.30
2018-07-24T07:53:22.209Z,5.20
2018-07-24T07:55:24.281Z,5.43
2018-07-24T07:57:26.329Z,5.97
2018-07-24T07:59:28.415Z,5.30
2018-07-24T08:01:30.503Z,5.63
2018-07-24T08:03:32.616Z,5.33
2018-07-24T08:05:34.687Z,5.10
2018-07-24T08:07:36.758Z,5.37
2018-07-24T08:09:38.857Z,5.20
2018-07-24T08:11:41.012Z,5.03
2018-07-24T08:13:43.086Z,5.57
2018-07-24T08:15:45.149Z,5.10
2018-07-24T08:17:47.217Z,4.83
2018-07-24T08:19:49.322Z,4.80
2018-07-24T08:21:51.379Z,4.80
2018-07-24T08:23:53.478Z,4.57
2018-07-24T08:25:55.588Z,5.10
2018-07-24T08:27:57.730Z,4.87
2018-07-24T08:29:59.759Z,4.90
2018-07-24T08:32:01.822Z,5.33
2018-07-24T08:34:03.897Z,5.30
2018-07-24T08:36:05.980Z,4.40
2018-07-24T08:38:08.050Z,4.50
2018-07-24T08:40:10.113Z,4.27
2018-07-24T08:42:12.164Z,4.53
2018-07-24T08:44:14.221Z,4.33
2018-07-24T08:46:16.289Z,4.90
2018-07-24T08:48:18.409Z,4.47
2018-07-24T08:50:20.483Z,4.73
2018-07-24T08:52:22.655Z,4.37
2018-07-24T08:54:24.853Z,4.30
2018-07-24T08:56:26.814Z,4.57
2018-07-24T08:58:28.960Z,3.80
2018-07-24T09:00:31.110Z,4.27
2018-07-24T09:02:33.330Z,4.47
2018-07-24T09:04:35.426Z,4.37
2018-07-24T09:06:37.509Z,4.47
2018-07-24T09:08:39.592Z,3.80
2018-07-24T09:10:41.713Z,4.27
2018-07-24T09:12:43.886Z,3.97
2018-07-24T09:14:46.007Z,4.10
2018-07-24T09:16:48.092Z,3.77
2018-07-24T09:18:50.189Z,3.73
2018-07-24T09:20:52.443Z,4.67
2018-07-24T09:22:54.485Z,3.87
2018-07-24T09:24:56.603Z,3.80
2018-07-24T09:26:58.787Z,3.93
2018-07-24T09:29:00.817Z,4.00
2018-07-24T09:31:02.934Z,4.47
2018-07-24T09:33:05.032Z,3.70
2018-07-24T09:35:07.140Z,3.77
2018-07-24T09:37:09.212Z,3.70
2018-07-24T09:39:11.321Z,4.27
2018-07-24T09:41:13.425Z,3.33
2018-07-24T09:43:15.546Z,4.00
2018-07-24T09:45:17.693Z,3.83
2018-07-24T09:47:19.776Z,3.77
2018-07-24T09:49:21.833Z,3.57
2018-07-24T09:51:23.924Z,3.60
2018-07-24T09:53:26.017Z,3.50
2018-07-24T09:55:28.125Z,3.70
2018-07-24T09:57:30.276Z,3.53
2018-07-24T09:59:32.427Z,3.30
2018-07-24T10:01:34.976Z,3.77
2018-07-24T10:03:37.309Z,3.53
2018-07-24T10:05:39.407Z,3.23
2018-07-24T10:07:41.477Z,4.20
2018-07-24T10:09:43.589Z,3.87
2018-07-24T10:11:45.657Z,3.80
2018-07-24T10:13:47.801Z,4.57
2018-07-24T10:15:49.939Z,4.10
2018-07-24T10:17:52.033Z,3.90
2018-07-24T10:19:54.160Z,3.90
2018-07-24T10:21:56.258Z,3.37
2018-07-24T10:23:58.319Z,3.13
2018-07-24T10:26:00.394Z,3.93
2018-07-24T10:28:02.484Z,3.90
2018-07-24T10:30:04.820Z,3.47
2018-07-24T10:32:06.941Z,5.17
2018-07-24T10:34:09.078Z,4.03
2018-07-24T10:36:11.185Z,4.27
2018-07-24T10:38:13.370Z,2.90
2018-07-24T10:40:15.481Z,3.27
2018-07-24T10:42:17.557Z,3.93
2018-07-24T10:44:19.705Z,3.53
2018-07-24T10:46:21.837Z,3.60
2018-07-24T10:48:23.885Z,3.43
2018-07-24T10:50:25.983Z,3.00
2018-07-24T10:52:28.104Z,3.50
2018-07-24T10:54:30.183Z,3.13
2018-07-24T10:56:32.686Z,3.30
2018-07-24T10:58:34.785Z,3.47
2018-07-24T11:00:36.937Z,3.40
2018-07-24T11:02:39.023Z,3.30
2018-07-24T11:04:41.177Z,3.10
2018-07-24T11:06:43.272Z,3.23
2018-07-24T11:08:45.392Z,3.17
2018-07-24T11:10:47.553Z,4.10
2018-07-24T11:12:49.685Z,3.40
2018-07-24T11:14:51.775Z,4.10
2018-07-24T11:16:53.872Z,3.37
2018-07-24T11:18:55.948Z,2.80
2018-07-24T11:20:58.031Z,3.20
2018-07-24T11:23:00.204Z,3.40
2018-07-24T11:25:02.229Z,5.00
2018-07-24T11:27:04.384Z,3.70
2018-07-24T11:29:06.481Z,3.47
2018-07-24T11:31:08.544Z,3.80
2018-07-24T11:33:10.650Z,3.27
2018-07-24T11:35:12.760Z,3.30
2018-07-24T11:37:14.841Z,3.10
2018-07-24T11:39:16.942Z,2.80
2018-07-24T11:41:19.005Z,3.20
2018-07-24T11:43:21.118Z,3.30
2018-07-24T11:45:23.208Z,3.10
2018-07-24T11:47:25.272Z,2.80
2018-07-24T11:49:27.358Z,3.30
2018-07-24T11:51:29.457Z,3.20
2018-07-24T11:53:31.545Z,2.97
2018-07-24T11:55:33.672Z,2.73
2018-07-24T11:57:35.813Z,3.20
2018-07-24T11:59:38.108Z,3.00
2018-07-24T12:01:40.225Z,3.10
2018-07-24T12:03:42.281Z,3.40
2018-07-24T12:05:44.396Z,3.20
2018-07-24T12:07:46.489Z,3.20
2018-07-24T12:09:48.612Z,3.67
2018-07-24T12:11:50.866Z,2.80
2018-07-24T12:13:52.948Z,3.43
2018-07-24T12:15:55.051Z,3.63
2018-07-24T12:17:57.162Z,2.90
2018-07-24T12:19:59.265Z,3.43
2018-07-24T12:22:01.353Z,3.73
2018-07-24T12:24:03.546Z,3.40
2018-07-24T12:26:05.633Z,3.73
2018-07-24T12:28:07.804Z,3.60
2018-07-24T12:30:09.853Z,3.53
2018-07-24T12:32:12.038Z,2.83
2018-07-24T12:34:14.237Z,3.03
2018-07-24T12:36:16.479Z,3.07
2018-07-24T12:38:18.573Z,3.37
2018-07-24T12:40:20.757Z,3.13
2018-07-24T12:42:22.882Z,3.13
2018-07-24T12:44:24.993Z,2.90
2018-07-24T12:46:27.104Z,2.57
2018-07-24T12:48:29.224Z,2.90
2018-07-24T12:50:31.314Z,2.70
2018-07-24T12:52:33.485Z,2.83
2018-07-24T12:54:35.556Z,3.10
2018-07-24T12:56:37.644Z,3.00
2018-07-24T12:58:39.765Z,3.10
2018-07-24T13:00:41.940Z,2.70
2018-07-24T13:02:44.103Z,2.60
2018-07-24T13:04:46.244Z,3.00
2018-07-24T13:06:48.409Z,2.53
2018-07-24T13:08:50.496Z,2.50
2018-07-24T13:10:52.622Z,3.07
2018-07-24T13:12:54.686Z,3.50
2018-07-24T13:14:56.846Z,3.17
2018-07-24T13:16:58.989Z,2.60
2018-07-24T13:19:01.205Z,3.00
2018-07-24T13:21:03.337Z,3.50
2018-07-24T13:23:05.487Z,2.83
2018-07-24T13:25:07.592Z,2.90
2018-07-24T13:27:09.781Z,2.90
2018-07-24T13:29:11.889Z,2.90
2018-07-24T13:31:13.960Z,2.40
2018-07-24T13:33:16.153Z,2.90
2018-07-24T13:35:18.269Z,2.33
2018-07-24T13:37:20.396Z,2.90
2018-07-24T13:39:22.539Z,3.43
2018-07-24T13:41:24.633Z,3.30
2018-07-24T13:43:26.740Z,2.73
2018-07-24T13:45:28.833Z,2.97
2018-07-24T13:47:30.916Z,2.27
2018-07-24T13:49:33.153Z,2.43
2018-07-24T13:51:35.253Z,2.53
2018-07-24T13:53:37.388Z,2.40
2018-07-24T13:55:39.500Z,2.33
2018-07-24T13:57:41.584Z,2.40
2018-07-24T13:59:43.730Z,2.33
2018-07-24T14:01:45.857Z,2.10
2018-07-24T14:03:48.008Z,2.73
2018-07-24T14:05:50.087Z,2.70
2018-07-24T14:07:52.198Z,2.97
2018-07-24T14:09:54.281Z,2.83
2018-07-24T14:11:56.350Z,2.93
2018-07-24T14:13:58.483Z,3.13
2018-07-24T14:16:00.568Z,2.60
2018-07-24T14:18:02.714Z,2.50
2018-07-24T14:20:04.830Z,2.53
2018-07-24T14:22:06.947Z,2.80
2018-07-24T14:24:09.020Z,3.27
2018-07-24T14:26:11.082Z,2.80
2018-07-24T14:28:13.168Z,2.87
2018-07-24T14:30:15.233Z,2.80
2018-07-24T14:32:17.284Z,3.03
2018-07-24T14:34:19.345Z,3.00
2018-07-24T14:36:21.468Z,2.40
2018-07-24T14:38:23.540Z,2.93
2018-07-24T14:40:25.621Z,3.23
2018-07-24T14:42:27.697Z,2.73
2018-07-24T14:44:29.798Z,3.63
2018-07-24T14:46:31.996Z,3.40
2018-07-24T14:48:34.025Z,3.50
2018-07-24T14:50:36.231Z,4.50
2018-07-24T14:52:38.356Z,3.50
2018-07-24T14:54:40.432Z,3.20
2018-07-24T14:56:42.632Z,3.97
2018-07-24T14:58:44.882Z,3.20
2018-07-24T15:00:46.925Z,3.07
2018-07-24T15:02:49.013Z,3.50
2018-07-24T15:04:51.130Z,3.03
2018-07-24T15:06:53.160Z,3.07
2018-07-24T15:08:55.252Z,2.80
2018-07-24T15:10:57.397Z,3.07
2018-07-24T15:12:59.522Z,3.30
2018-07-24T15:15:01.758Z,2.73
2018-07-24T15:17:03.954Z,3.57
2018-07-24T15:19:05.948Z,3.10
2018-07-24T15:21:08.038Z,2.83
2018-07-24T15:23:10.206Z,3.23
2018-07-24T15:25:12.325Z,3.40
2018-07-24T15:27:14.422Z,3.60
2018-07-24T15:29:16.504Z,3.33
2018-07-24T15:31:18.594Z,3.00
2018-07-24T15:33:20.676Z,3.17
2018-07-24T15:35:22.784Z,3.30
2018-07-24T15:37:24.894Z,3.30
2018-07-24T15:39:26.982Z,3.33
2018-07-24T15:41:29.184Z,3.80
2018-07-24T15:43:31.290Z,3.37
2018-07-24T15:45:33.435Z,3.43
2018-07-24T15:47:35.509Z,3.50
2018-07-24T15:49:37.596Z,3.27
2018-07-24T15:51:39.678Z,3.30
2018-07-24T15:53:41.758Z,3.77
2018-07-24T15:55:43.843Z,3.43
2018-07-24T15:57:45.996Z,3.67
2018-07-24T15:59:48.088Z,3.00
2018-07-24T16:01:50.193Z,3.63
2018-07-24T16:03:52.354Z,3.50
2018-07-24T16:05:54.469Z,3.60
2018-07-24T16:07:56.524Z,3.60
2018-07-24T16:09:58.596Z,3.47
2018-07-24T16:12:00.659Z,3.23
2018-07-24T16:14:03.898Z,3.13
2018-07-24T16:16:06.076Z,3.10
2018-07-24T16:18:08.269Z,3.03
2018-07-24T16:20:10.347Z,3.37
2018-07-24T16:22:12.410Z,3.17
2018-07-24T16:24:14.508Z,3.80
2018-07-24T16:26:16.567Z,3.80
2018-07-24T16:28:18.792Z,3.40
2018-07-24T16:30:20.862Z,3.60
2018-07-24T16:32:22.921Z,3.40
2018-07-24T16:34:25.134Z,3.93
2018-07-24T16:36:27.221Z,3.57
2018-07-24T16:38:29.289Z,3.30
2018-07-24T16:40:31.371Z,3.70
2018-07-24T16:42:33.543Z,3.27
2018-07-24T16:44:35.637Z,3.40
2018-07-24T16:46:37.764Z,3.23
2018-07-24T16:48:39.861Z,3.13
2018-07-24T16:50:41.960Z,3.43
2018-07-24T16:52:44.010Z,3.50
2018-07-24T16:54:46.068Z,3.27
2018-07-24T16:56:48.121Z,3.40
2018-07-24T16:58:50.181Z,3.73
2018-07-24T17:00:52.230Z,3.30
2018-07-24T17:02:54.545Z,3.90
2018-07-24T17:04:56.523Z,3.87
2018-07-24T17:06:58.637Z,3.60
2018-07-24T17:09:00.724Z,3.60
2018-07-24T17:11:02.845Z,3.63
2018-07-24T17:13:04.978Z,4.20
2018-07-24T17:15:07.436Z,4.33
2018-07-24T17:17:09.512Z,3.80
2018-07-24T17:19:11.588Z,3.90
2018-07-24T17:21:13.774Z,3.70
2018-07-24T17:23:15.873Z,4.10
2018-07-24T17:25:17.959Z,3.27
2018-07-24T17:27:20.112Z,3.83
2018-07-24T17:29:22.221Z,3.73
2018-07-24T17:31:24.336Z,3.53
2018-07-24T17:33:26.399Z,3.90
2018-07-24T17:35:28.609Z,3.77
2018-07-24T17:37:30.698Z,3.93
2018-07-24T17:39:32.778Z,3.83
2018-07-24T17:41:34.872Z,4.37
2018-07-24T17:43:36.921Z,3.90
2018-07-24T17:45:38.973Z,3.67
2018-07-24T17:47:40.981Z,3.47
2018-07-24T17:49:43.008Z,3.23
2018-07-24T17:51:45.036Z,3.53
2018-07-24T17:53:47.143Z,3.50
2018-07-24T17:55:49.157Z,3.67
2018-07-24T17:57:51.096Z,3.07
2018-07-24T17:59:54.234Z,4.23
2018-07-24T18:01:56.255Z,3.20
2018-07-24T18:03:58.259Z,3.40
2018-07-24T18:06:00.272Z,3.50
2018-07-24T18:08:02.273Z,4.00
2018-07-24T18:10:04.320Z,3.87
2018-07-24T18:12:06.311Z,3.70
2018-07-24T18:14:08.863Z,3.57
2018-07-24T18:16:10.878Z,3.60
2018-07-24T18:18:12.892Z,3.80
2018-07-24T18:20:15.028Z,3.40
2018-07-24T18:22:17.067Z,3.57
2018-07-24T18:24:19.068Z,3.80
2018-07-24T18:26:21.081Z,3.57
2018-07-24T18:28:23.203Z,3.60
2018-07-24T18:30:25.847Z,3.73
2018-07-24T18:32:27.843Z,3.10
2018-07-24T18:34:30.652Z,3.60
2018-07-24T18:36:32.673Z,3.50
2018-07-24T18:38:34.685Z,3.67
2018-07-24T18:40:36.711Z,3.73
2018-07-24T18:42:38.708Z,3.77
2018-07-24T18:44:40.708Z,3.10
2018-07-24T18:46:42.729Z,3.20
2018-07-24T18:48:44.709Z,3.07
2018-07-24T18:50:46.700Z,3.17
2018-07-24T18:52:48.782Z,3.53
2018-07-24T18:54:50.780Z,3.30
2018-07-24T18:56:52.776Z,3.40
2018-07-24T18:58:54.856Z,3.83
2018-07-24T19:00:56.900Z,3.57
2018-07-24T19:02:58.892Z,3.50
2018-07-24T19:05:00.947Z,3.13
2018-07-24T19:07:03.005Z,3.33
2018-07-24T19:09:06.672Z,3.30
2018-07-24T19:11:08.716Z,3.80
2018-07-24T19:13:10.734Z,4.20
2018-07-24T19:15:12.768Z,4.13
2018-07-24T19:17:14.856Z,4.00
2018-07-24T19:19:16.820Z,3.87
2018-07-24T19:21:18.827Z,3.60
2018-07-24T19:23:20.829Z,3.93
2018-07-24T19:25:22.848Z,3.53
2018-07-24T19:27:24.850Z,3.90
2018-07-24T19:29:26.855Z,3.97
2018-07-24T19:31:28.900Z,4.30
2018-07-24T19:33:30.966Z,3.90
2018-07-24T19:35:32.981Z,3.60
2018-07-24T19:37:35.071Z,3.53
2018-07-24T19:39:37.069Z,4.67
2018-07-24T19:41:39.738Z,4.20
2018-07-24T19:43:41.771Z,4.20
2018-07-24T19:45:43.780Z,4.03
2018-07-24T19:47:45.810Z,4.10
2018-07-24T19:49:47.914Z,4.47
2018-07-24T19:51:49.940Z,3.70
2018-07-24T19:53:51.988Z,4.10
2018-07-24T19:55:53.999Z,4.10
2018-07-24T19:57:56.016Z,4.30
2018-07-24T19:59:58.098Z,3.90
2018-07-24T20:02:00.120Z,4.33
2018-07-24T20:04:02.173Z,4.23
2018-07-24T20:06:04.197Z,4.30
2018-07-24T20:08:06.219Z,4.03
2018-07-24T20:10:08.357Z,4.40
2018-07-24T20:12:10.386Z,4.63
2018-07-24T20:14:12.467Z,4.53
2018-07-24T20:16:14.493Z,4.70
2018-07-24T20:18:16.571Z,4.60
2018-07-24T20:20:18.578Z,4.73
2018-07-24T20:22:20.629Z,5.17
2018-07-24T20:24:22.682Z,4.97
2018-07-24T20:26:24.751Z,3.90
2018-07-24T20:28:26.899Z,4.00
2018-07-24T20:30:29.008Z,4.20
2018-07-24T20:32:31.120Z,4.10
2018-07-24T20:34:33.133Z,5.00
2018-07-24T20:36:35.168Z,4.90
2018-07-24T20:38:37.336Z,4.80
2018-07-24T20:40:39.328Z,4.50
2018-07-24T20:42:41.354Z,4.50
2018-07-24T20:44:43.436Z,4.10
2018-07-24T20:46:45.467Z,4.00
2018-07-24T20:48:47.476Z,3.67
2018-07-24T20:50:49.480Z,4.17
2018-07-24T20:52:51.476Z,4.73
2018-07-24T20:54:53.511Z,4.07
2018-07-24T20:56:55.522Z,4.23
2018-07-24T20:58:57.512Z,4.27
2018-07-24T21:01:03.321Z,4.20
2018-07-24T21:03:05.354Z,4.17
2018-07-24T21:05:07.411Z,4.30
2018-07-24T21:07:09.408Z,4.07
2018-07-24T21:09:11.433Z,4.60
2018-07-24T21:11:13.441Z,4.93
2018-07-24T21:13:15.500Z,4.33
2018-07-24T21:15:18.176Z,5.60
2018-07-24T21:17:20.186Z,5.30
2018-07-24T21:19:28.356Z,5.23
2018-07-24T21:21:30.417Z,5.80
2018-07-24T21:23:32.456Z,6.00
2018-07-24T21:25:34.468Z,5.90
2018-07-24T21:27:36.468Z,5.23
2018-07-24T21:29:38.482Z,5.17
2018-07-24T21:31:40.481Z,4.30
2018-07-24T21:33:42.507Z,4.97
2018-07-24T21:35:44.841Z,4.90
2018-07-24T21:37:46.866Z,4.63
2018-07-24T21:39:48.923Z,5.07
2018-07-24T21:41:50.964Z,5.00
2018-07-24T21:43:52.972Z,4.40
2018-07-24T21:45:55.000Z,4.20
2018-07-24T21:47:57.021Z,4.80
2018-07-24T21:49:59.038Z,4.40
2018-07-24T21:52:01.140Z,4.77
2018-07-24T21:54:03.205Z,4.73
2018-07-24T21:56:05.229Z,4.60
2018-07-24T21:58:07.251Z,4.10
2018-07-24T22:00:10.100Z,3.60
2018-07-24T22:02:12.126Z,4.10
2018-07-24T22:04:14.128Z,3.80
2018-07-24T22:06:16.139Z,4.80
2018-07-24T22:08:18.160Z,4.23
2018-07-24T22:10:20.293Z,4.50
2018-07-24T22:12:22.308Z,4.80
2018-07-24T22:14:24.312Z,4.30
2018-07-24T22:16:27.093Z,4.00
2018-07-24T22:18:29.132Z,4.07
2018-07-24T22:20:31.138Z,4.10
2018-07-24T22:22:33.154Z,4.60
2018-07-24T22:24:35.177Z,4.00
2018-07-24T22:26:37.242Z,4.20
2018-07-24T22:28:39.261Z,3.90
2018-07-24T22:30:41.289Z,4.33
2018-07-24T22:32:43.313Z,4.00
2018-07-24T22:34:45.344Z,4.80
2018-07-24T22:36:47.359Z,3.80
2018-07-24T22:38:49.356Z,3.97
2018-07-24T22:40:51.383Z,4.20
2018-07-24T22:42:53.412Z,4.40
2018-07-24T22:44:55.522Z,4.60
2018-07-24T22:46:57.549Z,4.47
2018-07-24T22:48:59.565Z,4.33
2018-07-24T22:51:01.596Z,4.50
2018-07-24T22:53:03.645Z,4.50
2018-07-24T22:55:05.688Z,4.40
2018-07-24T22:57:07.783Z,4.63
2018-07-24T22:59:09.829Z,4.47
2018-07-24T23:01:11.848Z,3.57
2018-07-24T23:03:13.937Z,4.80
2018-07-24T23:05:15.976Z,4.70
2018-07-24T23:07:17.997Z,4.57
2018-07-24T23:09:20.042Z,4.87
2018-07-24T23:11:22.051Z,4.50
2018-07-24T23:13:24.073Z,4.50
2018-07-24T23:15:26.084Z,3.90
2018-07-24T23:17:28.117Z,4.60
2018-07-24T23:19:30.165Z,3.67
2018-07-24T23:21:32.240Z,5.70
2018-07-24T23:23:34.272Z,5.03
2018-07-24T23:25:36.273Z,5.07
2018-07-24T23:27:38.289Z,4.57
2018-07-24T23:29:40.304Z,4.10
2018-07-24T23:31:42.311Z,5.43
2018-07-24T23:33:44.316Z,5.23
2018-07-24T23:35:46.357Z,5.00
2018-07-24T23:37:48.373Z,5.30
2018-07-24T23:39:50.390Z,5.60
2018-07-24T23:41:52.408Z,5.00
2018-07-24T23:43:54.500Z,5.50
2018-07-24T23:45:56.591Z,4.83
2018-07-24T23:47:58.633Z,5.20
2018-07-24T23:50:00.716Z,5.00
2018-07-24T23:52:02.833Z,5.37
2018-07-24T23:54:04.896Z,5.07
2018-07-24T23:56:06.962Z,4.93
2018-07-24T23:58:09.004Z,5.07
